Bei Facebook empfehlenBei Twitter postenGoogle plusPinterest

Das Wetter im Erzgebirge am 28.02.2015

Wetter und Klima am 28.02.2015 Holzhau im Erzgebirge (630m ü.NN)
Letzte gemessene Temperatur und Uhrzeit der Messung23:45:00 Uhr-4.10 °C
Temperatur (Maximum / Höchstwert) und Uhrzeit der Messung16:00:00 Uhr4.90 °C
Temperatur (Minimum / Tiefstwert) und Uhrzeit der Messung23:45:00-4.10 °C
Errechneter Absolutwert der Temperaturschwankungen zwischen Tmin und Tmax des Tages9.00 K
Errechnete Tagesmitteltemperatur-0.03958 °C
Gesamt - Niederschlag des Tages (in flüssiger Form)0.52 Liter / m²
Luftdruck (Maximum / Höchstwert) und Zeitpunkt der Messung11:00:00 Uhr1017.40 hPa
Luftdruck (Minimum / Tiefstwert) und Zeitpunkt der Messung23:30:00 Uhr1012.90 hPa
Errechneter Absolutwert der Luftdruckschwankungen des Tages4.50 hPa
Höchste gemessene Windgeschwindigkeit und Uhrzeit der Messung10:45:00 Uhr6.48 km/h
Errechnete Windhäufigkeit in Relation zu den Messwerten des Tages3.12500 %
Niedrigste Windkühle (Windchill) und Zeitpunkt der Messung23:45:00 Uhr-4.10 °C
Taupunkt (Maximum / Höchstwert) und Uhrzeit der Messung13:15:00 Uhr1.40 °C
Taupunkt (Minimum / Tiefstwert) und Uhrzeit der Messung23:45:00-5.70 °C
Anzahl der automatisch eingelesenen Messwerte 96

Detaillierte Wetter- und Klima- Messwerte für den 28.02.2015 in Holzhau im Erzgebirge (630m ü.NN)
ZeitTemperaturLuftdruckRel. LuftfeuchteWindWindrichtungWindchillTaupunktNiederschlag l/m²
23:45:00-4.10 °C1013.00 hPa90.00 %-5.70 °C0.52
23:30:00-3.80 °C1012.90 hPa90.00 %-5.40 °C0.52
23:15:00-3.60 °C1013.10 hPa90.00 %-5.20 °C0.52
23:00:00-3.60 °C1013.40 hPa90.00 %-5.20 °C0.52
22:45:00-3.60 °C1013.50 hPa90.00 %-5.20 °C0.52
22:30:00-3.70 °C1013.70 hPa90.00 %-5.30 °C0.52
22:15:00-3.60 °C1014.00 hPa90.00 %-5.20 °C0.52
22:00:00-3.40 °C1014.30 hPa90.00 %-5.00 °C0.52
21:45:00-3.30 °C1014.30 hPa90.00 %-4.90 °C0.52
21:30:00-3.10 °C1014.50 hPa89.00 %-4.80 °C0.52
21:15:00-2.90 °C1014.80 hPa89.00 %-4.60 °C0.52
21:00:00-2.50 °C1014.90 hPa89.00 %-4.20 °C0.52
20:45:00-2.50 °C1015.40 hPa89.00 %-4.20 °C0.52
20:30:00-2.70 °C1015.50 hPa89.00 %-4.40 °C0.52
20:15:00-2.70 °C1015.80 hPa88.00 %-4.60 °C0.52
20:00:00-2.70 °C1015.70 hPa87.00 %-4.80 °C0.52
19:45:00-2.40 °C1015.70 hPa87.00 %-4.50 °C0.52
19:30:00-2.00 °C1015.80 hPa87.00 %-4.10 °C0.52
19:15:00-1.60 °C1015.80 hPa87.00 %-3.70 °C0.52
19:00:00-1.60 °C1015.80 hPa87.00 %-3.70 °C0.52
18:45:00-1.60 °C1016.00 hPa86.00 %-3.90 °C0.52
18:30:00-1.50 °C1016.10 hPa85.00 %-3.90 °C0.52
18:15:00-1.20 °C1016.30 hPa84.00 %-3.80 °C0.52
18:00:00-0.90 °C1016.30 hPa82.00 %-3.90 °C0.52
17:45:00-0.10 °C1016.10 hPa81.00 %-3.30 °C0.52
17:30:000.80 °C1016.10 hPa79.00 %-2.40 °C0.52
17:15:001.80 °C1016.10 hPa77.00 %-1.80 °C0.52
17:00:002.90 °C1016.30 hPa76.00 %-0.90 °C0.52
16:45:003.50 °C1016.10 hPa74.00 %-0.70 °C0.52
16:30:003.50 °C1016.30 hPa73.00 %-0.90 °C0.52
16:15:004.60 °C1016.10 hPa71.00 %-0.20 °C0.52
16:00:004.90 °C1016.10 hPa72.00 %0.30 °C0.52
15:45:004.70 °C1016.00 hPa72.00 %0.10 °C0.52
15:30:004.40 °C1016.00 hPa73.00 %0.00 °C0.52
15:15:004.80 °C1015.90 hPa73.00 %0.40 °C0.52
15:00:004.60 °C1015.90 hPa75.00 %0.60 °C0.52
14:45:004.10 °C1016.30 hPa75.00 %0.10 °C0.52
14:30:003.90 °C1016.60 hPa76.00 %0.10 °C0.52
14:15:003.90 °C1016.70 hPa76.00 %3.60 km/hSW3.90 °C0.10 °C0.52
14:00:004.10 °C1016.70 hPa79.00 %0.80 °C0.52
13:45:003.80 °C1016.70 hPa80.00 %2.16 km/hSSW3.80 °C0.70 °C0.52
13:30:003.60 °C1016.90 hPa82.00 %0.80 °C0.52
13:15:003.80 °C1017.00 hPa84.00 %1.40 °C0.52
13:00:003.20 °C1017.10 hPa87.00 %1.30 °C0.52
12:45:002.20 °C1017.10 hPa89.00 %0.60 °C0.52
12:30:001.40 °C1017.30 hPa89.00 %-0.20 °C0.52
12:15:001.40 °C1017.30 hPa90.00 %-0.10 °C0.52
12:00:000.90 °C1017.30 hPa90.00 %-0.50 °C 
11:45:000.60 °C1017.20 hPa90.00 %-0.80 °C 
11:30:000.70 °C1017.30 hPa91.00 %-0.60 °C 
11:15:000.70 °C1017.30 hPa91.00 %-0.60 °C 
11:00:000.50 °C1017.40 hPa91.00 %-0.80 °C 
10:45:000.40 °C1017.20 hPa92.00 %6.48 km/hW-1.80 °C-0.70 °C 
10:30:000.60 °C1017.10 hPa92.00 %-0.50 °C 
10:15:000.50 °C1017.00 hPa93.00 %-0.50 °C 
10:00:000.10 °C1017.10 hPa92.00 %-1.00 °C 
09:45:000.10 °C1017.00 hPa93.00 %-0.90 °C 
09:30:00-0.10 °C1016.80 hPa93.00 %-1.20 °C 
09:15:00-0.30 °C1016.70 hPa93.00 %-1.40 °C 
09:00:00-0.40 °C1016.60 hPa93.00 %-1.50 °C 
08:45:00-0.40 °C1016.60 hPa93.00 %-1.50 °C 
08:30:00-0.40 °C1016.60 hPa93.00 %-1.50 °C 
08:15:00-0.40 °C1016.30 hPa93.00 %-1.50 °C 
08:00:00-0.50 °C1016.00 hPa93.00 %-1.60 °C 
07:45:00-0.60 °C1016.00 hPa93.00 %-1.70 °C 
07:30:00-0.70 °C1015.90 hPa93.00 %-1.80 °C 
07:15:00-0.60 °C1015.70 hPa93.00 %-1.70 °C 
07:00:00-0.50 °C1015.40 hPa93.00 %-1.60 °C 
06:45:00-0.50 °C1015.30 hPa92.00 %-1.80 °C 
06:30:00-0.50 °C1015.30 hPa92.00 %-1.80 °C 
06:15:00-0.40 °C1015.10 hPa92.00 %-1.70 °C 
06:00:00-0.40 °C1014.90 hPa92.00 %-1.70 °C 
05:45:00-0.40 °C1014.60 hPa92.00 %-1.70 °C 
05:30:00-0.20 °C1014.50 hPa92.00 %-1.50 °C 
05:15:00-0.20 °C1014.50 hPa92.00 %-1.50 °C 
05:00:00-0.20 °C1014.50 hPa92.00 %-1.50 °C 
04:45:00-0.10 °C1014.50 hPa92.00 %-1.40 °C 
04:30:00-0.10 °C1014.50 hPa92.00 %-1.40 °C 
04:15:00-0.10 °C1014.40 hPa92.00 %-1.40 °C 
04:00:00-0.10 °C1014.40 hPa92.00 %-1.40 °C 
03:45:00-0.10 °C1014.30 hPa92.00 %-1.40 °C 
03:30:00-0.10 °C1014.30 hPa91.00 %-1.50 °C 
03:15:00-0.10 °C1014.40 hPa91.00 %-1.50 °C 
03:00:00-0.10 °C1014.40 hPa91.00 %-1.50 °C 
02:45:00-0.20 °C1014.40 hPa91.00 %-1.60 °C 
02:30:00-0.40 °C1014.50 hPa91.00 %-1.80 °C 
02:15:00-0.40 °C1014.50 hPa90.00 %-2.00 °C 
02:00:00-0.40 °C1014.60 hPa90.00 %-2.00 °C 
01:45:00-0.60 °C1014.50 hPa90.00 %-2.20 °C 
01:30:00-0.70 °C1014.40 hPa90.00 %-2.30 °C 
01:15:00-0.80 °C1014.30 hPa90.00 %-2.40 °C 
01:00:00-1.00 °C1014.20 hPa89.00 %-2.80 °C 
00:45:00-1.20 °C1014.30 hPa89.00 %-3.00 °C 
00:30:00-1.60 °C1014.30 hPa89.00 %-3.40 °C 
00:15:00-1.90 °C1014.30 hPa88.00 %-3.80 °C 
00:00:00-2.40 °C1014.40 hPa88.00 %-4.30 °C 

Permanenter Link zu dieser Seite: Wetter im Erzgebirge am 28.02.2015
Performance-Info: Die Erstellung der Seite / Statistik(en) / Tabelle(n) erforderte 5 Datenbankserver-Abfrage(n) und dauerte 103 Millisekunden. (Dieser Messwert ist von der Gesamt-Auslastung des Servers abhängig.)
Erzgebirge - Wetter | Erzgebirge - Wetter (Mobilgeräte) | Komplette Klimadatenbank